Burns Pinion Ridge Reserve, California Weather observations

Data are for 10 minute period ending at time listed.
 Day   Time   Solar   Ave.   Ave.  Ave.  Vector  Max.   Baro.   Total    
  of    of     Rad.   Air    Rel.  Wind   Wind   Wind  Press.  Precip.   
Year   Day            Temp.  Hum.  Speed  Dir.   Gust                    
2016   (PST)  Kw/m2    F      %     mph   deg.    mph    mb.     in.     
-------------------------------------------------------------------------
 180    7:10   0.30   89.2    16    4.9    12     7.7   879.2    0.00 
 180    7:20   0.22   89.2    16    4.9     4     9.1   879.3    0.00 
 180    7:30   0.33   88.8    16    7.7    30    15.1   879.2    0.00 
 180    7:40   0.42   90.7    15    8.7   351    14.0   879.2    0.00 
 180    7:50   0.50   90.4    16    5.9   357    12.4   879.3    0.00 
 180    8:00   0.63   92.6    15    6.1    36    12.6   879.3    0.00 
 180    8:10   0.64   92.0    15    5.9     4    11.2   879.2    0.00 
 180    8:20   0.66   93.3    15    3.5    46     9.4   879.1    0.00 
 180    8:30   0.69   93.0    15    6.2    21    12.6   879.0    0.00 
 180    8:40   0.73   93.8    15    3.6    59     9.1   878.9    0.00 
 180    8:50   0.76   92.7    15    6.1    40    14.2   878.9    0.00 
 180    9:00   0.81   93.0    15    5.4    73    14.5   878.8    0.00 
 180    9:10   0.71   93.4    15    6.1    53    14.6   878.7    0.00 
 180    9:20   0.91   94.0    15    7.7    48    14.8   878.7    0.00 
 180    9:30   0.90   93.7    15    8.4    49    17.5   878.6    0.00 
 180    9:40   0.87   92.9    15    6.4    70    14.5   878.6    0.00 
 180    9:50   0.88   94.0    14    6.0    64    13.2   878.6    0.00 
 180   10:00   0.90   94.0    14    5.7    32    14.0   878.5    0.00 
 180   10:10   0.92   94.2    14    6.6    39    15.1   878.5    0.00 
 180   10:20   0.93   94.8    14    5.4    40    11.5   878.5    0.00 
 180   10:30   0.94   95.9    14    5.7    26    12.9   878.5    0.00 
 180   10:40   0.95   94.2    14    6.7    37    18.6   878.5    0.00 
 180   10:50   0.97   95.3    14    4.8    27    14.3   878.5    0.00 
 180   11:00   0.98   95.2    14    4.9    40    14.8   878.5    0.00 
 180   11:10   1.00   95.6    14    4.3    91    11.0   878.4    0.00 
 180   11:20   1.05   95.4    14    4.7    58     8.8   878.4    0.00 
 180   11:30   1.11   96.5    13    5.0    60    13.2   878.3    0.00 
 180   11:40   1.17   97.3    13    4.3    81    11.8   878.2    0.00 
 180   11:50   0.93   97.2    13    5.9    52    11.9   878.2    0.00 
 180   12:00   0.91   97.0    13    8.9   338    15.3   878.1    0.00 
 180   12:10   0.32   94.3    14    7.1   292    13.2   878.0    0.00 
 180   12:20   0.29   94.3    14    4.6   338    12.1   877.9    0.00 
 180   12:30   0.23   93.9    14    2.9    49     7.1   877.8    0.00 
 180   12:40   0.28   93.7    14    7.2   354    14.2   877.8    0.00 
 180   12:50   0.28   93.3    14    3.9   351     7.8   877.7    0.00 
 180   13:00   0.30   93.5    14    4.3    48     7.5   877.6    0.00 
 180   13:10   0.21   93.4    14    2.4    58     5.3   877.5    0.00 
 180   13:20   0.29   93.3    14    2.6   224     8.9   877.4    0.00 
 180   13:30   0.23   93.0    15   10.3   292    18.6   877.3    0.00 
 180   13:40   0.18   91.6    15   10.1   298    17.8   877.2    0.00 
 180   13:50   0.20   91.8    15    7.2   284    13.4   877.1    0.00 
 180   14:00   0.17   92.5    14    3.6   314     6.7   877.1    0.00 
 180   14:10   0.14   92.6    15    6.1   356    12.0   877.1    0.00 
 180   14:20   0.13   90.6    19    5.7    43    10.7   877.1    0.00 
 180   14:30   0.16   89.5    19    5.9   100    11.5   877.1    0.00 
 180   14:40   0.15   89.9    19    4.5   127     7.5   877.0    0.00 
 180   14:50   0.14   89.5    21    6.3   116    14.2   876.9    0.00 
 180   15:00   0.14   87.3    22    8.2   107    18.9   876.8    0.00 
 180   15:10   0.11   87.4    24    4.6   106    11.2   876.9    0.00 
 180   15:20   0.15   83.7    38    5.6   120    10.4   876.9    0.00 
 180   15:30   0.32   84.5    31    8.5   118    13.0   876.9    0.01 
 180   15:40   0.17   85.3    28    5.4   115    11.0   876.9    0.00 
 180   15:50   0.28   87.4    25    3.4   129     5.5   876.9    0.00 
 180   16:00   0.60   89.2    25    6.8   128    11.3   876.8    0.00 
 180   16:10   0.51   91.0    20    5.9   113     8.9   876.6    0.00 
 180   16:20   0.36   91.1    20    5.2   120     8.1   876.5    0.00 
 180   16:30   0.16   91.4    18    4.2   130     6.6   876.4    0.00 
 180   16:40   0.19   91.3    18    2.2   146     4.3   876.2    0.00 
 180   16:50   0.25   93.3    18    4.3   167     8.6   876.2    0.00 
 180   17:00   0.33   93.1    17    3.5   178     6.9   876.1    0.00 
 180   17:10   0.10   92.9    17    2.8   201     5.8   876.1    0.00 
 180   17:20   0.06   90.4    19    2.2   224     3.8   876.1    0.00 
 180   17:30   0.12   90.2    19    2.9   218     5.9   876.1    0.00 
 180   17:40   0.20   92.1    20    4.0   228     8.8   876.1    0.00 
 180   17:50   0.17   92.0    20    4.2   221     8.1   876.1    0.00 
 180   18:00   0.08   92.5    20    1.5   193     3.7   876.1    0.00 
 180   18:10   0.03   89.9    21    2.8   227     7.7   876.2    0.00 
 180   18:20   0.05   88.9    18    6.7   290    11.8   876.2    0.00 
 180   18:30   0.03   88.6    18    5.1   296     9.1   876.2    0.00 
 180   18:40   0.04   88.1    18    5.1   301     8.4   876.3    0.00 
 180   18:50   0.02   87.1    19    5.9   300    11.2   876.5    0.00 
 180   19:00   0.01   86.5    20    6.8   303    11.2   876.5    0.00 
 180   19:10   0.00   85.5    21    4.2   298     7.4   876.6    0.00 
 180   19:20   0.00   84.3    22    2.7   278     5.4   876.6    0.00 
 180   19:30   0.00   84.2    23    4.7   291     8.7   876.6    0.00 
 180   19:40   0.00   83.8    23    4.8   304    10.1   876.7    0.00 
 180   19:50   0.00   84.0    21    7.2   306    12.3   876.7    0.00 
 180   20:00   0.00   84.3    21    6.5   307    11.2   876.7    0.00 
 180   20:10   0.00   83.8    22    6.7   305    12.1   876.7    0.00 
 180   20:20   0.00   84.3    21   11.9   309    18.6   876.8    0.00 
 180   20:30   0.00   84.6    20   13.1   313    20.7   877.0    0.00 
 180   20:40   0.00   84.0    20   11.1   311    17.5   877.1    0.00 
 180   20:50   0.00   83.5    21   10.1   307    16.1   877.2    0.00 
 180   21:00   0.00   83.1    23    8.6   303    14.7   877.2    0.00 
 180   21:10   0.00   82.6    24    7.9   308    14.0   877.2    0.00 
 180   21:20   0.00   82.3    23    7.9   307    13.7   877.2    0.00 
 180   21:30   0.00   82.9    22    8.4   292    14.8   877.2    0.00 
 180   21:40   0.00   82.5    22    7.5   295    12.8   877.1    0.00 
 180   21:50   0.00   81.9    23    7.3   302    12.1   877.1    0.00 
 180   22:00   0.00   81.2    23    5.9   322    10.2   877.1    0.00 
 180   22:10   0.00   79.9    24    4.7   325     7.5   877.1    0.00 
 180   22:20   0.00   78.4    26    3.3   318     5.6   877.1    0.00 
 180   22:30   0.00   77.4    27    2.5   327     3.9   877.0    0.00 
 180   22:40   0.00   75.9    28    2.3   314     4.2   876.9    0.00 
 180   22:50   0.00   75.8    28    3.5   304     5.3   876.9    0.00 
 180   23:00   0.00   77.2    27    3.1   295     4.5   876.8    0.00 
 180   23:10   0.00   76.0    28    3.4   294     4.9   876.7    0.00 
 180   23:20   0.00   76.9    27    3.3   294     5.2   876.7    0.00 
 180   23:30   0.00   76.1    28    3.7   308     5.4   876.7    0.00 
 180   23:40   0.00   76.7    27    4.9   298     7.8   876.7    0.00 
 180   23:50   0.00   77.6    26    4.4   302     7.2   876.7    0.00 
 181    0:00   0.00   78.0    26    4.5   286     7.4   876.7    0.00 
 181    0:10   0.00   78.9    25    4.9   265     6.8   876.7    0.00 
 181    0:20   0.00   78.2    26    4.2   271     6.4   876.7    0.00 
 181    0:30   0.00   77.7    26    4.0   292     7.1   876.6    0.00 
 181    0:40   0.00   77.6    26    2.3   303     5.3   876.7    0.00 
 181    0:50   0.00   76.1    28    1.7   146     2.7   876.6    0.00 
 181    1:00   0.00   73.7    31    0.5   165     2.0   876.5    0.00 
 181    1:10   0.00   71.9    33    1.6    72     3.4   876.5    0.00 
 181    1:20   0.00   71.5    33    2.2    18     3.9   876.4    0.00 
 181    1:30   0.00   71.2    33    0.9   334     2.2   876.3    0.00 
 181    1:40   0.00   70.6    34    0.7    30     1.9   876.2    0.00 
 181    1:50   0.00   69.8    35    1.0   360     2.0   876.2    0.00 
 181    2:00   0.00   69.0    36    1.9    27     3.9   876.2    0.00 
 181    2:10   0.00   70.6    33    5.3     5     7.8   876.0    0.00 
 181    2:20   0.00   72.8    30    1.8   339     3.3   876.0    0.00 
 181    2:30   0.00   71.9    31    1.3   345     3.7   876.0    0.00 
 181    2:40   0.00   71.1    32    0.3   321     1.7   876.0    0.00 
 181    2:50   0.00   70.6    33    2.0   296     3.4   876.0    0.00 
 181    3:00   0.00   69.8    34    0.5   289     1.8   876.0    0.00 
 181    3:10   0.00   68.5    36    0.3   309     1.5   876.0    0.00 
 181    3:20   0.00   68.3    36    1.7   290     3.1   876.1    0.00 
 181    3:30   0.00   69.4    34    1.4   305     2.6   876.1    0.00 
 181    3:40   0.00   68.4    36    1.5   305     2.3   876.1    0.00 
 181    3:50   0.00   67.7    37    1.5   313     2.3   876.0    0.00 
 181    4:00   0.00   67.2    38    0.3   346     1.0   876.0    0.00 
 181    4:10   0.00   67.6    37    0.9    11     5.5   876.0    0.00 
 181    4:20   0.00   71.1    33    3.9    13     8.0   876.1    0.00 
 181    4:30   0.00   72.6    31    0.3   309     2.1   876.2    0.00 
 181    4:40   0.00   70.3    34    0.3    28     2.1   876.2    0.00 
 181    4:50   0.01   68.4    36    0.4   353     1.5   876.3    0.00 
 181    5:00   0.01   68.5    36    2.0   262     3.2   876.3    0.00 
 181    5:10   0.02   68.6    36    1.2   276     2.2   876.3    0.00 
 181    5:20   0.06   70.2    34    0.8   316     2.1   876.3    0.00 
 181    5:30   0.09   73.4    31    0.2   147     1.5   876.4    0.00 
 181    5:40   0.12   76.0    28    0.4   102     1.8   876.5    0.00 
 181    5:50   0.15   79.4    25    0.6    59     2.3   876.7    0.00 
 181    6:00   0.18   82.7    23    0.1    68     1.9   876.8    0.00 
 181    6:10   0.21   84.7    21    2.1   128     3.4   877.0    0.00 
 181    6:20   0.25   85.1    21    3.5   126     4.7   877.2    0.00 
 181    6:30   0.28   85.9    20    3.3   109     5.0   877.4    0.00 
 181    6:40   0.31   86.8    20    4.0   129     5.8   877.5    0.00 
 181    6:50   0.35   87.9    19    4.2   150     6.1   877.7    0.00 
 181    7:00   0.39   89.5    18    3.9   173     6.9   877.8    0.00 

Return to Burns Pinion Ridge Reserve graphs page.


Western Regional Climate Center,wrcc@dri.edu